Time;durP1;ratioP1;P1;durP2;ratioP2;P2;SDS_P1;SDS_P2;PMS_P1;PMS_P2;Temp;Humidity;BMP_temperature;BMP_pressure;BME280_temperature;BME280_humidity;BME280_pressure;Samples;Min_cycle;Max_cycle;Signal;HPM_P1;HPM_P2
2023/06/18 00:00:56;;;;;;;;;;;;;;;;;;2197192;59;2212;-18
2023/06/18 00:03:26;;;;;;;;;;;;;;;;;;2199295;59;1703;-18
2023/06/18 00:05:59;;;;;;;;;;;;;;;;;;2198246;59;1560;-18
2023/06/18 00:08:29;;;;;;;;;;;;;;;;;;2199139;59;1343;-18
2023/06/18 00:11:02;;;;;;;;;;;;;;;;;;2197615;59;1148;-18
2023/06/18 00:13:32;;;;;;;;;;;;;;;;;;2197008;59;1927;-18
2023/06/18 00:16:02;;;;;;;;;;;;;;;;;;2199309;59;1288;-18
2023/06/18 00:18:33;;;;;;;;;;;;;;;;;;2198112;59;1813;-18
2023/06/18 00:21:07;;;;;;;;;;;;;;;;;;2197282;59;1319;-18
2023/06/18 00:23:37;;;;;;;;;;;;;;;;;;2196969;59;2344;-18
2023/06/18 00:26:08;;;;;;;;;;;;;;;;;;2197353;59;1309;-18
2023/06/18 00:28:38;;;;;;;;;;;;;;;;;;2196243;59;1765;-18
2023/06/18 00:31:11;;;;;;;;;;;;;;;;;;2196638;59;1455;-18
2023/06/18 00:33:41;;;;;;;;;;;;;;;;;;2196527;59;1922;-18
2023/06/18 00:36:12;;;;;;;;;;;;;;;;;;2196844;59;1704;-18
2023/06/18 00:38:47;;;;;;;;;;;;;;;;;;2196562;59;2065;-18
2023/06/18 00:41:17;;;;;;;;;;;;;;;;;;2195348;59;1983;-19
2023/06/18 00:43:47;;;;;;;;;;;;;;;;;;2195733;59;1949;-18
2023/06/18 00:46:17;;;;;;;;;;;;;;;;;;2194643;59;1336;-17
2023/06/18 00:48:47;;;;;;;;;;;;;;;;;;2195331;59;1801;-17
2023/06/18 00:51:18;;;;;;;;;;;;;;;;;;2195706;59;1554;-18
2023/06/18 00:53:49;;;;;;;;;;;;;;;;;;2195226;59;1997;-18
2023/06/18 00:56:21;;;;;;;;;;;;;;;;;;2196617;59;1613;-18
2023/06/18 00:58:51;;;;;;;;;;;;;;;;;;2195899;59;2233;-18
2023/06/18 01:01:22;;;;;;;;;;;;;;;;;;2195447;59;2283;-17
2023/06/18 01:03:52;;;;;;;;;;;;;;;;;;2195315;59;1933;-18
2023/06/18 01:06:24;;;;;;;;;;;;;;;;;;2194928;59;1296;-18
2023/06/18 01:08:55;;;;;;;;;;;;;;;;;;2194965;59;1897;-18
2023/06/18 01:11:28;;;;;;;;;;;;;;;;;;2195375;59;1377;-18
2023/06/18 01:13:59;;;;;;;;;;;;;;;;;;2194689;67;1996;-18
2023/06/18 01:16:30;;;;;;;;;;;;;;;;;;2194867;59;1272;-18
2023/06/18 01:19:01;;;;;;;;;;;;;;;;;;2194223;67;1573;-18
2023/06/18 01:21:34;;;;;;;;;;;;;;;;;;2194645;67;1111;-18
2023/06/18 01:24:11;;;;;;;;;;;;;;;;;;2192552;67;1151;-18
2023/06/18 01:26:42;;;;;;;;;;;;;;;;;;2195340;59;1381;-18
2023/06/18 01:29:12;;;;;;;;;;;;;;;;;;2194004;67;1520;-18
2023/06/18 01:31:44;;;;;;;;;;;;;;;;;;2194600;59;2164;-18
2023/06/18 01:34:18;;;;;;;;;;;;;;;;;;2194659;67;1952;-18
2023/06/18 01:36:57;;;;;;;;;;;;;;;;;;2194771;67;1783;-18
2023/06/18 01:39:50;;;;;;;;;;;;;;;;;;2194749;67;1612;-17
2023/06/18 01:42:22;;;;;;;;;;;;;;;;;;2194811;67;1567;-18
2023/06/18 01:45:13;;;;;;;;;;;;;;;;;;2194180;67;1160;-18
2023/06/18 01:47:45;;;;;;;;;;;;;;;;;;2194311;59;1434;-18
2023/06/18 01:50:16;;;;;;;;;;;;;;;;;;2194628;59;1823;-18
2023/06/18 01:52:48;;;;;;;;;;;;;;;;;;2195064;59;1462;-18
2023/06/18 01:55:19;;;;;;;;;;;;;;;;;;2194121;67;1975;-18
2023/06/18 01:57:49;;;;;;;;;;;;;;;;;;2194532;59;1891;-18
2023/06/18 02:00:19;;;;;;;;;;;;;;;;;;2194089;59;2359;-18
2023/06/18 02:02:51;;;;;;;;;;;;;;;;;;2194230;59;1346;-18
2023/06/18 02:05:21;;;;;;;;;;;;;;;;;;2194007;67;1355;-18
2023/06/18 02:07:51;;;;;;;;;;;;;;;;;;2194873;59;1654;-18
2023/06/18 02:10:22;;;;;;;;;;;;;;;;;;2194613;67;2059;-17
2023/06/18 02:12:52;;;;;;;;;;;;;;;;;;2194911;67;1208;-18
2023/06/18 02:15:22;;;;;;;;;;;;;;;;;;2194375;59;1912;-17
2023/06/18 02:17:53;;;;;;;;;;;;;;;;;;2195009;67;1243;-18
2023/06/18 02:20:23;;;;;;;;;;;;;;;;;;2194889;67;2094;-17
2023/06/18 02:22:54;;;;;;;;;;;;;;;;;;2195380;67;1138;-18
2023/06/18 02:25:29;;;;;;;;;;;;;;;;;;2195007;67;1333;-18
2023/06/18 02:28:00;;;;;;;;;;;;;;;;;;2194773;59;1566;-18
2023/06/18 02:30:30;;;;;;;;;;;;;;;;;;2193743;59;2250;-18
2023/06/18 02:33:02;;;;;;;;;;;;;;;;;;2194552;67;1376;-17
2023/06/18 02:35:33;;;;;;;;;;;;;;;;;;2197402;67;1939;-18
2023/06/18 02:38:03;;;;;;;;;;;;;;;;;;2194537;67;1992;-18
2023/06/18 02:40:33;;;;;;;;;;;;;;;;;;2194995;67;2088;-17
2023/06/18 02:43:05;;;;;;;;;;;;;;;;;;2197198;67;1305;-17
2023/06/18 02:45:35;;;;;;;;;;;;;;;;;;2194338;67;1648;-17
2023/06/18 02:48:06;;;;;;;;;;;;;;;;;;2194373;67;1684;-18
2023/06/18 02:50:36;;;;;;;;;;;;;;;;;;2194788;59;1869;-18
2023/06/18 02:53:09;;;;;;;;;;;;;;;;;;2194473;59;1917;-17
2023/06/18 02:55:41;;;;;;;;;;;;;;;;;;2194936;67;2005;-17
2023/06/18 02:58:19;;;;;;;;;;;;;;;;;;2194275;59;2128;-18
2023/06/18 03:00:49;;;;;;;;;;;;;;;;;;2192252;59;2309;-17
2023/06/18 03:03:21;;;;;;;;;;;;;;;;;;2194539;67;1304;-18
2023/06/18 03:05:54;;;;;;;;;;;;;;;;;;2193819;59;1836;-17
2023/06/18 03:08:25;;;;;;;;;;;;;;;;;;2195381;59;1423;-18
2023/06/18 03:10:55;;;;;;;;;;;;;;;;;;2194678;67;1712;-18
2023/06/18 03:13:25;;;;;;;;;;;;;;;;;;2194698;67;1997;-17
2023/06/18 03:15:55;;;;;;;;;;;;;;;;;;2194645;59;1394;-18
2023/06/18 03:18:26;;;;;;;;;;;;;;;;;;2194677;67;2274;-17
2023/06/18 03:20:56;;;;;;;;;;;;;;;;;;2194069;67;1634;-18
2023/06/18 03:23:26;;;;;;;;;;;;;;;;;;2194406;67;1146;-18
2023/06/18 03:25:57;;;;;;;;;;;;;;;;;;2191940;60;1496;-17
2023/06/18 03:28:27;;;;;;;;;;;;;;;;;;2195404;67;1565;-17
2023/06/18 03:31:01;;;;;;;;;;;;;;;;;;2195132;59;1289;-18
2023/06/18 03:33:31;;;;;;;;;;;;;;;;;;2195653;67;2001;-17
2023/06/18 03:36:02;;;;;;;;;;;;;;;;;;2194947;67;1341;-17
2023/06/18 03:38:33;;;;;;;;;;;;;;;;;;2194660;67;1957;-18
2023/06/18 03:41:03;;;;;;;;;;;;;;;;;;2195277;59;1340;-17
2023/06/18 03:43:36;;;;;;;;;;;;;;;;;;2195499;67;1777;-17
2023/06/18 03:46:07;;;;;;;;;;;;;;;;;;2197391;67;1377;-17
2023/06/18 03:48:37;;;;;;;;;;;;;;;;;;2194874;59;1761;-17
2023/06/18 03:51:07;;;;;;;;;;;;;;;;;;2194673;59;2023;-17
2023/06/18 03:53:38;;;;;;;;;;;;;;;;;;2194496;59;2280;-18
2023/06/18 03:56:08;;;;;;;;;;;;;;;;;;2196543;59;1744;-17
2023/06/18 03:58:38;;;;;;;;;;;;;;;;;;2195125;59;2069;-18
2023/06/18 04:01:08;;;;;;;;;;;;;;;;;;2196089;59;2278;-17
2023/06/18 04:03:39;;;;;;;;;;;;;;;;;;2195625;67;1379;-20
2023/06/18 04:06:09;;;;;;;;;;;;;;;;;;2196049;59;2095;-20
2023/06/18 04:08:41;;;;;;;;;;;;;;;;;;2195673;59;1316;-20
2023/06/18 04:11:12;;;;;;;;;;;;;;;;;;2196177;67;1694;-20
2023/06/18 04:13:42;;;;;;;;;;;;;;;;;;2195487;67;1936;-20
2023/06/18 04:16:12;;;;;;;;;;;;;;;;;;2195925;67;1133;-20
2023/06/18 04:18:42;;;;;;;;;;;;;;;;;;2196645;67;1394;-20
2023/06/18 04:21:13;;;;;;;;;;;;;;;;;;2195769;67;1980;-20
2023/06/18 04:23:43;;;;;;;;;;;;;;;;;;2195565;67;1472;-20
2023/06/18 04:26:13;;;;;;;;;;;;;;;;;;2195872;59;1744;-20
2023/06/18 04:28:44;;;;;;;;;;;;;;;;;;2192571;67;2557;-20
2023/06/18 04:31:14;;;;;;;;;;;;;;;;;;2195169;59;1391;-20
2023/06/18 04:33:45;;;;;;;;;;;;;;;;;;2194540;59;1941;-20
2023/06/18 04:36:15;;;;;;;;;;;;;;;;;;2195566;67;1480;-20
2023/06/18 04:38:45;;;;;;;;;;;;;;;;;;2195304;67;1330;-20
2023/06/18 04:41:16;;;;;;;;;;;;;;;;;;2195027;67;1725;-17
2023/06/18 04:43:46;;;;;;;;;;;;;;;;;;2195271;67;1260;-18
2023/06/18 04:46:16;;;;;;;;;;;;;;;;;;2195982;67;1349;-18
2023/06/18 04:48:46;;;;;;;;;;;;;;;;;;2196190;59;1991;-17
2023/06/18 04:51:17;;;;;;;;;;;;;;;;;;2196038;59;1827;-17
2023/06/18 04:53:47;;;;;;;;;;;;;;;;;;2195449;67;1977;-18
2023/06/18 04:56:18;;;;;;;;;;;;;;;;;;2195695;67;1632;-18
2023/06/18 04:58:48;;;;;;;;;;;;;;;;;;2195026;59;2073;-18
2023/06/18 05:01:20;;;;;;;;;;;;;;;;;;2195598;59;3083;-18
2023/06/18 05:03:50;;;;;;;;;;;;;;;;;;2196134;67;1530;-17
2023/06/18 05:06:20;;;;;;;;;;;;;;;;;;2195352;67;1361;-18
2023/06/18 05:08:51;;;;;;;;;;;;;;;;;;2195344;59;1438;-18
2023/06/18 05:11:21;;;;;;;;;;;;;;;;;;2195326;67;2107;-19
2023/06/18 05:13:51;;;;;;;;;;;;;;;;;;2195275;67;2681;-18
2023/06/18 05:16:21;;;;;;;;;;;;;;;;;;2194844;67;1343;-18
2023/06/18 05:18:52;;;;;;;;;;;;;;;;;;2195616;67;1245;-18
2023/06/18 05:21:22;;;;;;;;;;;;;;;;;;2195396;67;1417;-18
2023/06/18 05:23:52;;;;;;;;;;;;;;;;;;2196000;67;1310;-17
2023/06/18 05:26:22;;;;;;;;;;;;;;;;;;2195821;67;1357;-18
2023/06/18 05:28:52;;;;;;;;;;;;;;;;;;2195345;59;1369;-18
2023/06/18 05:31:28;;;;;;;;;;;;;;;;;;2195860;59;2247;-18
2023/06/18 05:33:58;;;;;;;;;;;;;;;;;;2195023;59;2023;-18
2023/06/18 05:36:28;;;;;;;;;;;;;;;;;;2196269;67;1238;-18
2023/06/18 05:39:02;;;;;;;;;;;;;;;;;;2195558;67;1425;-18
2023/06/18 05:41:33;;;;;;;;;;;;;;;;;;2195614;67;1642;-18
2023/06/18 05:44:06;;;;;;;;;;;;;;;;;;2195875;67;1348;-18
2023/06/18 05:46:36;;;;;;;;;;;;;;;;;;2195990;59;1639;-18
2023/06/18 05:49:06;;;;;;;;;;;;;;;;;;2195865;67;2020;-18
2023/06/18 05:51:37;;;;;;;;;;;;;;;;;;2195692;59;1391;-18
2023/06/18 05:54:07;;;;;;;;;;;;;;;;;;2197563;67;2026;-18
2023/06/18 05:56:37;;;;;;;;;;;;;;;;;;2195866;67;2089;-18
2023/06/18 05:59:07;;;;;;;;;;;;;;;;;;2196278;59;2014;-18
2023/06/18 06:01:38;;;;;;;;;;;;;;;;;;2195866;59;2313;-18
2023/06/18 06:04:08;;;;;;;;;;;;;;;;;;2198019;67;1617;-18
2023/06/18 06:06:38;;;;;;;;;;;;;;;;;;2194964;67;1341;-20
2023/06/18 06:09:09;;;;;;;;;;;;;;;;;;2195629;59;1341;-20
2023/06/18 06:11:39;;;;;;;;;;;;;;;;;;2195999;67;1288;-18
2023/06/18 06:14:09;;;;;;;;;;;;;;;;;;2195117;67;1992;-18
2023/06/18 06:16:39;;;;;;;;;;;;;;;;;;2193824;67;1753;-18
2023/06/18 06:19:12;;;;;;;;;;;;;;;;;;2195225;67;1337;-18
2023/06/18 06:21:42;;;;;;;;;;;;;;;;;;2197886;67;1702;-18
2023/06/18 06:24:13;;;;;;;;;;;;;;;;;;2194886;67;1309;-18
2023/06/18 06:26:46;;;;;;;;;;;;;;;;;;2194916;59;1402;-18
2023/06/18 06:29:16;;;;;;;;;;;;;;;;;;2194618;67;1804;-18
2023/06/18 06:31:47;;;;;;;;;;;;;;;;;;2196375;59;1734;-18
2023/06/18 06:34:17;;;;;;;;;;;;;;;;;;2194865;67;1990;-18
2023/06/18 06:36:48;;;;;;;;;;;;;;;;;;2196378;67;1211;-18
2023/06/18 06:39:18;;;;;;;;;;;;;;;;;;2195427;67;1722;-18
2023/06/18 06:41:49;;;;;;;;;;;;;;;;;;2194464;67;1327;-18
2023/06/18 06:44:22;;;;;;;;;;;;;;;;;;2195040;67;1298;-18
2023/06/18 06:46:52;;;;;;;;;;;;;;;;;;2195928;59;1826;-18
2023/06/18 06:49:23;;;;;;;;;;;;;;;;;;2194646;59;1468;-18
2023/06/18 06:51:54;;;;;;;;;;;;;;;;;;2195338;59;1405;-18
2023/06/18 06:54:30;;;;;;;;;;;;;;;;;;2192087;67;1938;-18
2023/06/18 06:57:00;;;;;;;;;;;;;;;;;;2195052;67;1308;-18
2023/06/18 06:59:31;;;;;;;;;;;;;;;;;;2195121;59;2278;-19
2023/06/18 07:02:01;;;;;;;;;;;;;;;;;;2194863;59;2405;-18
2023/06/18 07:04:31;;;;;;;;;;;;;;;;;;2196841;59;1686;-18
2023/06/18 07:07:05;;;;;;;;;;;;;;;;;;2194822;67;1554;-18
2023/06/18 07:09:35;;;;;;;;;;;;;;;;;;2194655;59;1799;-18
2023/06/18 07:12:05;;;;;;;;;;;;;;;;;;2195211;67;1502;-18
2023/06/18 07:14:36;;;;;;;;;;;;;;;;;;2194234;67;1975;-18
2023/06/18 07:17:06;;;;;;;;;;;;;;;;;;2195086;67;1859;-18
2023/06/18 07:19:36;;;;;;;;;;;;;;;;;;2194008;59;2064;-18
2023/06/18 07:22:06;;;;;;;;;;;;;;;;;;2196752;59;2079;-18
2023/06/18 07:24:36;;;;;;;;;;;;;;;;;;2195159;67;1521;-18
2023/06/18 07:27:07;;;;;;;;;;;;;;;;;;2193524;59;2300;-18
2023/06/18 07:29:37;;;;;;;;;;;;;;;;;;2194144;67;1888;-18
2023/06/18 07:32:07;;;;;;;;;;;;;;;;;;2194037;59;2411;-18
2023/06/18 07:34:37;;;;;;;;;;;;;;;;;;2194038;59;2287;-18
2023/06/18 07:37:07;;;;;;;;;;;;;;;;;;2193675;59;2106;-18
2023/06/18 07:39:38;;;;;;;;;;;;;;;;;;2194612;67;1454;-18
2023/06/18 07:42:08;;;;;;;;;;;;;;;;;;2194162;59;2162;-18
2023/06/18 07:44:38;;;;;;;;;;;;;;;;;;2194083;59;1329;-18
2023/06/18 07:47:08;;;;;;;;;;;;;;;;;;2194008;59;1730;-18
2023/06/18 07:49:39;;;;;;;;;;;;;;;;;;2195250;59;2135;-19
2023/06/18 07:52:09;;;;;;;;;;;;;;;;;;2192680;59;2415;-19
2023/06/18 07:54:42;;;;;;;;;;;;;;;;;;2193337;59;2292;-19
2023/06/18 07:57:13;;;;;;;;;;;;;;;;;;2194028;67;1641;-19
2023/06/18 07:59:43;;;;;;;;;;;;;;;;;;2193806;59;2220;-19
2023/06/18 08:02:13;;;;;;;;;;;;;;;;;;2196552;59;1390;-19
2023/06/18 08:04:44;;;;;;;;;;;;;;;;;;2193396;59;2696;-19
2023/06/18 08:07:17;;;;;;;;;;;;;;;;;;2193507;67;1704;-19
2023/06/18 08:09:47;;;;;;;;;;;;;;;;;;2196231;59;1138;-19
2023/06/18 08:12:17;;;;;;;;;;;;;;;;;;2193867;67;2127;-19
2023/06/18 08:14:48;;;;;;;;;;;;;;;;;;2194312;67;2000;-19
2023/06/18 08:17:18;;;;;;;;;;;;;;;;;;2193856;59;2082;-19
2023/06/18 08:19:49;;;;;;;;;;;;;;;;;;2194126;67;1366;-19
2023/06/18 08:22:19;;;;;;;;;;;;;;;;;;2196168;59;2140;-19
2023/06/18 08:24:50;;;;;;;;;;;;;;;;;;2193764;59;2110;-19
2023/06/18 08:27:20;;;;;;;;;;;;;;;;;;2193136;59;2196;-19
2023/06/18 08:29:50;;;;;;;;;;;;;;;;;;2193892;59;2051;-19
2023/06/18 08:32:20;;;;;;;;;;;;;;;;;;2193766;59;2578;-19
2023/06/18 08:34:52;;;;;;;;;;;;;;;;;;2193574;59;2244;-19
2023/06/18 08:37:22;;;;;;;;;;;;;;;;;;2193943;59;2213;-19
2023/06/18 08:39:52;;;;;;;;;;;;;;;;;;2194018;59;1407;-19
2023/06/18 08:42:23;;;;;;;;;;;;;;;;;;2193911;67;1791;-19
2023/06/18 08:44:54;;;;;;;;;;;;;;;;;;2193935;67;1313;-19
2023/06/18 08:47:27;;;;;;;;;;;;;;;;;;2193738;59;2232;-19
2023/06/18 08:49:57;;;;;;;;;;;;;;;;;;2193348;59;2288;-19
2023/06/18 08:52:30;;;;;;;;;;;;;;;;;;2193840;59;2012;-19
2023/06/18 08:55:08;;;;;;;;;;;;;;;;;;2193236;59;2156;-19
2023/06/18 08:57:54;;;;;;;;;;;;;;;;;;2194110;67;2180;-19
2023/06/18 09:00:24;;;;;;;;;;;;;;;;;;2193189;59;2465;-19
2023/06/18 09:03:01;;;;;;;;;;;;;;;;;;2190448;59;2181;-19
2023/06/18 09:05:32;;;;;;;;;;;;;;;;;;2192931;59;2333;-19
2023/06/18 09:08:02;;;;;;;;;;;;;;;;;;2194400;59;1767;-22
2023/06/18 09:10:32;;;;;;;;;;;;;;;;;;2194342;67;1392;-22
2023/06/18 09:13:03;;;;;;;;;;;;;;;;;;2192268;60;2720;-22
2023/06/18 09:15:33;;;;;;;;;;;;;;;;;;2193415;59;2356;-22
2023/06/18 09:18:04;;;;;;;;;;;;;;;;;;2193349;67;1847;-22
2023/06/18 09:20:35;;;;;;;;;;;;;;;;;;2194033;67;2033;-22
2023/06/18 09:23:08;;;;;;;;;;;;;;;;;;2194314;67;1647;-22
2023/06/18 09:25:38;;;;;;;;;;;;;;;;;;2193926;59;1904;-22
2023/06/18 09:28:09;;;;;;;;;;;;;;;;;;2193445;59;3726;-22
2023/06/18 09:30:47;;;;;;;;;;;;;;;;;;2194666;59;1877;-22
2023/06/18 09:33:28;;;;;;;;;;;;;;;;;;2192920;67;1869;-22
2023/06/18 09:36:04;;;;;;;;;;;;;;;;;;2192961;59;2164;-22
2023/06/18 09:38:36;;;;;;;;;;;;;;;;;;2193334;59;2264;-22
2023/06/18 09:41:14;;;;;;;;;;;;;;;;;;2192856;59;2290;-22
2023/06/18 09:43:47;;;;;;;;;;;;;;;;;;2195595;59;2614;-22
2023/06/18 09:46:22;;;;;;;;;;;;;;;;;;2193180;67;1747;-22
2023/06/18 09:48:52;;;;;;;;;;;;;;;;;;2192614;59;2071;-22
2023/06/18 09:51:24;;;;;;;;;;;;;;;;;;2193680;59;1468;-22
2023/06/18 09:53:55;;;;;;;;;;;;;;;;;;2194031;59;1928;-22
2023/06/18 09:56:26;;;;;;;;;;;;;;;;;;2194332;67;1905;-22
2023/06/18 09:58:56;;;;;;;;;;;;;;;;;;2193435;59;2258;-22
2023/06/18 10:01:27;;;;;;;;;;;;;;;;;;2193400;59;2344;-22
2023/06/18 10:03:57;;;;;;;;;;;;;;;;;;2193718;59;3642;-22
2023/06/18 10:06:29;;;;;;;;;;;;;;;;;;2193748;59;1996;-22
2023/06/18 10:09:00;;;;;;;;;;;;;;;;;;2193763;59;1791;-22
2023/06/18 10:11:30;;;;;;;;;;;;;;;;;;2193484;59;2364;-22
2023/06/18 10:14:02;;;;;;;;;;;;;;;;;;2191614;59;2939;-22
2023/06/18 10:16:34;;;;;;;;;;;;;;;;;;2192986;59;2592;-22
2023/06/18 10:19:07;;;;;;;;;;;;;;;;;;2193073;67;2508;-22
2023/06/18 10:21:40;;;;;;;;;;;;;;;;;;2192367;59;2129;-22
2023/06/18 10:24:17;;;;;;;;;;;;;;;;;;2193628;59;1923;-22
2023/06/18 10:26:48;;;;;;;;;;;;;;;;;;2192675;59;3069;-22
2023/06/18 10:29:19;;;;;;;;;;;;;;;;;;2191275;67;1716;-22
2023/06/18 10:31:50;;;;;;;;;;;;;;;;;;2193772;59;2848;-21
2023/06/18 10:34:21;;;;;;;;;;;;;;;;;;2192035;59;2415;-20
2023/06/18 10:36:51;;;;;;;;;;;;;;;;;;2190475;67;2377;-20
2023/06/18 10:39:22;;;;;;;;;;;;;;;;;;2192800;59;2912;-20
2023/06/18 10:41:53;;;;;;;;;;;;;;;;;;2194168;59;1800;-23
2023/06/18 10:44:33;;;;;;;;;;;;;;;;;;2193015;59;2237;-23
2023/06/18 10:47:16;;;;;;;;;;;;;;;;;;2193587;59;1740;-23
2023/06/18 10:50:02;;;;;;;;;;;;;;;;;;2194131;59;1827;-23
2023/06/18 10:52:32;;;;;;;;;;;;;;;;;;2193282;67;1812;-23
2023/06/18 10:55:15;;;;;;;;;;;;;;;;;;2195142;59;2584;-23
2023/06/18 10:57:46;;;;;;;;;;;;;;;;;;2193376;59;2077;-23
2023/06/18 11:00:18;;;;;;;;;;;;;;;;;;2193188;59;2190;-23
2023/06/18 11:02:56;;;;;;;;;;;;;;;;;;2193310;67;2182;-23
2023/06/18 11:05:33;;;;;;;;;;;;;;;;;;2188308;59;1939;-23
2023/06/18 11:08:07;;;;;;;;;;;;;;;;;;2190399;59;3463;-23
2023/06/18 11:10:39;;;;;;;;;;;;;;;;;;2191562;59;2245;-23
2023/06/18 11:13:11;;;;;;;;;;;;;;;;;;2188951;59;3244;-23
2023/06/18 11:15:53;;;;;;;;;;;;;;;;;;2192496;59;3378;-23
2023/06/18 11:18:27;;;;;;;;;;;;;;;;;;2192487;59;2835;-23
2023/06/18 11:20:58;;;;;;;;;;;;;;;;;;2193231;67;2022;-23
2023/06/18 11:23:30;;;;;;;;;;;;;;;;;;2193714;67;2625;-23
2023/06/18 11:26:00;;;;;;;;;;;;;;;;;;2192176;59;3012;-23
2023/06/18 11:28:30;;;;;;;;;;;;;;;;;;2194284;67;1912;-20
2023/06/18 11:31:03;;;;;;;;;;;;;;;;;;2193525;59;2048;-23
2023/06/18 11:33:33;;;;;;;;;;;;;;;;;;2193593;67;1802;-23
2023/06/18 11:36:11;;;;;;;;;;;;;;;;;;2192483;59;2597;-23
2023/06/18 11:38:41;;;;;;;;;;;;;;;;;;2192910;59;2700;-23
2023/06/18 11:41:11;;;;;;;;;;;;;;;;;;2193349;67;2075;-23
2023/06/18 11:43:51;;;;;;;;;;;;;;;;;;2193827;59;2665;-23
2023/06/18 11:46:28;;;;;;;;;;;;;;;;;;2193104;67;2592;-23
2023/06/18 11:48:59;;;;;;;;;;;;;;;;;;2193204;67;2716;-23
2023/06/18 11:51:30;;;;;;;;;;;;;;;;;;2193798;59;1815;-23
2023/06/18 11:54:03;;;;;;;;;;;;;;;;;;2193147;59;2705;-23
2023/06/18 11:56:34;;;;;;;;;;;;;;;;;;2193227;67;3388;-23
2023/06/18 11:59:04;;;;;;;;;;;;;;;;;;2193099;59;2110;-23
2023/06/18 12:01:35;;;;;;;;;;;;;;;;;;2194507;59;2602;-23
2023/06/18 12:04:06;;;;;;;;;;;;;;;;;;2193461;67;2593;-23
2023/06/18 12:06:37;;;;;;;;;;;;;;;;;;2194019;67;1708;-23
2023/06/18 12:09:09;;;;;;;;;;;;;;;;;;2193145;59;2026;-23
2023/06/18 12:11:58;;;;;;;;;;;;;;;;;;2193560;67;1677;-23
2023/06/18 12:14:38;;;;;;;;;;;;;;;;;;2193483;67;1999;-23
2023/06/18 12:17:20;;;;;;;;;;;;;;;;;;2193628;67;1694;-23
2023/06/18 12:19:54;;;;;;;;;;;;;;;;;;2192829;59;2239;-23
2023/06/18 12:22:26;;;;;;;;;;;;;;;;;;2191798;59;2135;-22
2023/06/18 12:24:56;;;;;;;;;;;;;;;;;;2193573;59;2809;-22
2023/06/18 12:27:26;;;;;;;;;;;;;;;;;;2192565;59;2506;-22
2023/06/18 12:30:05;;;;;;;;;;;;;;;;;;2191260;59;2004;-22
2023/06/18 12:32:36;;;;;;;;;;;;;;;;;;2190809;59;3142;-23
2023/06/18 12:35:14;;;;;;;;;;;;;;;;;;2192931;59;2393;-22
2023/06/18 12:37:46;;;;;;;;;;;;;;;;;;2193195;59;1913;-22
2023/06/18 12:40:21;;;;;;;;;;;;;;;;;;2193782;61;1682;-23
2023/06/18 12:42:52;;;;;;;;;;;;;;;;;;2193306;59;3123;-23
2023/06/18 12:45:26;;;;;;;;;;;;;;;;;;2192342;59;2114;-23
2023/06/18 12:47:56;;;;;;;;;;;;;;;;;;2194182;59;2341;-20
2023/06/18 12:50:27;;;;;;;;;;;;;;;;;;2193557;59;2488;-20
2023/06/18 12:52:57;;;;;;;;;;;;;;;;;;2191502;59;2384;-20
2023/06/18 12:55:28;;;;;;;;;;;;;;;;;;2193129;67;1925;-20
2023/06/18 12:57:58;;;;;;;;;;;;;;;;;;2193235;59;2126;-20
2023/06/18 13:00:28;;;;;;;;;;;;;;;;;;2192306;59;2423;-20
2023/06/18 13:02:58;;;;;;;;;;;;;;;;;;2193038;59;2722;-20
2023/06/18 13:05:29;;;;;;;;;;;;;;;;;;2193622;67;2354;-20
2023/06/18 13:07:59;;;;;;;;;;;;;;;;;;2193377;59;2347;-20
2023/06/18 13:10:29;;;;;;;;;;;;;;;;;;2193391;59;2322;-20
2023/06/18 13:12:59;;;;;;;;;;;;;;;;;;2193746;67;1770;-20
2023/06/18 13:15:30;;;;;;;;;;;;;;;;;;2192594;60;1952;-20
2023/06/18 13:18:00;;;;;;;;;;;;;;;;;;2193699;59;1850;-20
2023/06/18 13:20:34;;;;;;;;;;;;;;;;;;2193302;59;2513;-20
2023/06/18 13:23:04;;;;;;;;;;;;;;;;;;2193075;59;2242;-20
2023/06/18 13:25:34;;;;;;;;;;;;;;;;;;2193114;59;2698;-20
2023/06/18 13:28:05;;;;;;;;;;;;;;;;;;2194055;59;2105;-20
2023/06/18 13:30:35;;;;;;;;;;;;;;;;;;2194371;59;2317;-20
2023/06/18 13:33:05;;;;;;;;;;;;;;;;;;2193612;59;2225;-20
2023/06/18 13:35:36;;;;;;;;;;;;;;;;;;2193394;59;2486;-20
2023/06/18 13:38:08;;;;;;;;;;;;;;;;;;2193168;59;2149;-20
2023/06/18 13:40:38;;;;;;;;;;;;;;;;;;2193905;67;1204;-20
2023/06/18 13:43:11;;;;;;;;;;;;;;;;;;2194466;59;2068;-20
2023/06/18 13:45:42;;;;;;;;;;;;;;;;;;2195378;67;1361;-20
2023/06/18 13:48:12;;;;;;;;;;;;;;;;;;2198607;59;1983;-20
2023/06/18 13:50:42;;;;;;;;;;;;;;;;;;2198729;67;1218;-20
2023/06/18 13:53:12;;;;;;;;;;;;;;;;;;2197052;59;2270;-20
2023/06/18 13:55:43;;;;;;;;;;;;;;;;;;2197900;67;1971;-20
2023/06/18 13:58:13;;;;;;;;;;;;;;;;;;2196323;59;2124;-20
2023/06/18 14:00:45;;;;;;;;;;;;;;;;;;2195591;59;2284;-20
2023/06/18 14:03:16;;;;;;;;;;;;;;;;;;2194021;59;2263;-20
2023/06/18 14:05:46;;;;;;;;;;;;;;;;;;2192972;59;2380;-20
2023/06/18 14:08:16;;;;;;;;;;;;;;;;;;2194562;59;2131;-20
2023/06/18 14:10:46;;;;;;;;;;;;;;;;;;2195012;67;1532;-20
2023/06/18 14:13:17;;;;;;;;;;;;;;;;;;2196013;64;1971;-20
2023/06/18 14:15:47;;;;;;;;;;;;;;;;;;2196974;67;1909;-20
2023/06/18 14:18:18;;;;;;;;;;;;;;;;;;2197057;67;2863;-20
2023/06/18 14:20:48;;;;;;;;;;;;;;;;;;2196892;59;2060;-20
2023/06/18 14:23:19;;;;;;;;;;;;;;;;;;2193648;59;2531;-20
2023/06/18 14:25:49;;;;;;;;;;;;;;;;;;2195217;59;1879;-20
2023/06/18 14:28:20;;;;;;;;;;;;;;;;;;2194430;67;1749;-20
2023/06/18 14:30:50;;;;;;;;;;;;;;;;;;2195035;59;1862;-20
2023/06/18 14:33:20;;;;;;;;;;;;;;;;;;2192871;67;1849;-20
2023/06/18 14:35:51;;;;;;;;;;;;;;;;;;2193928;67;1950;-20
2023/06/18 14:38:21;;;;;;;;;;;;;;;;;;2193734;67;2333;-20
2023/06/18 14:40:51;;;;;;;;;;;;;;;;;;2195800;59;1918;-20
2023/06/18 14:43:21;;;;;;;;;;;;;;;;;;2193818;67;1946;-20
2023/06/18 14:45:52;;;;;;;;;;;;;;;;;;2192968;59;2113;-20
2023/06/18 14:48:22;;;;;;;;;;;;;;;;;;2196053;59;2486;-20
2023/06/18 14:50:52;;;;;;;;;;;;;;;;;;2194308;59;2566;-20
2023/06/18 14:53:22;;;;;;;;;;;;;;;;;;2193219;67;1859;-20
2023/06/18 14:55:53;;;;;;;;;;;;;;;;;;2193639;67;1952;-20
2023/06/18 14:58:23;;;;;;;;;;;;;;;;;;2193318;67;2273;-20
2023/06/18 15:00:53;;;;;;;;;;;;;;;;;;2193764;59;2431;-20
2023/06/18 15:03:23;;;;;;;;;;;;;;;;;;2195560;67;1862;-20
2023/06/18 15:05:54;;;;;;;;;;;;;;;;;;2192633;67;3011;-20
2023/06/18 15:08:24;;;;;;;;;;;;;;;;;;2192552;59;2656;-23
2023/06/18 15:10:54;;;;;;;;;;;;;;;;;;2193415;67;1795;-22
2023/06/18 15:13:24;;;;;;;;;;;;;;;;;;2193163;67;2019;-22
2023/06/18 15:15:55;;;;;;;;;;;;;;;;;;2192845;67;1944;-22
2023/06/18 15:18:25;;;;;;;;;;;;;;;;;;2193852;67;1790;-22
2023/06/18 15:20:55;;;;;;;;;;;;;;;;;;2193113;67;1470;-22
2023/06/18 15:23:25;;;;;;;;;;;;;;;;;;2192400;59;2089;-22
2023/06/18 15:25:56;;;;;;;;;;;;;;;;;;2195500;67;2214;-23
2023/06/18 15:28:26;;;;;;;;;;;;;;;;;;2192396;67;1862;-22
2023/06/18 15:30:56;;;;;;;;;;;;;;;;;;2193189;59;1841;-22
2023/06/18 15:33:26;;;;;;;;;;;;;;;;;;2192376;67;1956;-22
2023/06/18 15:35:57;;;;;;;;;;;;;;;;;;2192052;67;1952;-20
2023/06/18 15:38:27;;;;;;;;;;;;;;;;;;2192718;67;1617;-18
2023/06/18 15:40:57;;;;;;;;;;;;;;;;;;2193870;67;1965;-18
2023/06/18 15:43:28;;;;;;;;;;;;;;;;;;2193453;67;2069;-18
2023/06/18 15:45:58;;;;;;;;;;;;;;;;;;2193151;59;1827;-18
2023/06/18 15:48:28;;;;;;;;;;;;;;;;;;2193928;59;2091;-20
2023/06/18 15:50:59;;;;;;;;;;;;;;;;;;2193903;59;2068;-20
2023/06/18 15:53:29;;;;;;;;;;;;;;;;;;2193802;67;1839;-18
2023/06/18 15:55:59;;;;;;;;;;;;;;;;;;2193652;59;2098;-18
2023/06/18 15:58:30;;;;;;;;;;;;;;;;;;2193085;59;2239;-18
2023/06/18 16:01:00;;;;;;;;;;;;;;;;;;2193870;59;2357;-18
2023/06/18 16:03:30;;;;;;;;;;;;;;;;;;2194638;59;1439;-18
2023/06/18 16:06:01;;;;;;;;;;;;;;;;;;2193884;59;2720;-20
2023/06/18 16:08:31;;;;;;;;;;;;;;;;;;2193283;59;2800;-20
2023/06/18 16:11:01;;;;;;;;;;;;;;;;;;2194067;59;1816;-20
2023/06/18 16:13:31;;;;;;;;;;;;;;;;;;2194474;67;1326;-20
2023/06/18 16:16:01;;;;;;;;;;;;;;;;;;2193633;67;1949;-20
2023/06/18 16:18:32;;;;;;;;;;;;;;;;;;2193656;67;1766;-20
2023/06/18 16:21:07;;;;;;;;;;;;;;;;;;2193987;67;1525;-20
2023/06/18 16:23:44;;;;;;;;;;;;;;;;;;2194694;67;1989;-20
2023/06/18 16:26:14;;;;;;;;;;;;;;;;;;2194470;59;2442;-20
2023/06/18 16:28:44;;;;;;;;;;;;;;;;;;2194454;59;2015;-22
2023/06/18 16:31:15;;;;;;;;;;;;;;;;;;2193711;59;1839;-20
2023/06/18 16:33:45;;;;;;;;;;;;;;;;;;2194141;67;1700;-20
2023/06/18 16:36:15;;;;;;;;;;;;;;;;;;2193248;59;2399;-20
2023/06/18 16:38:46;;;;;;;;;;;;;;;;;;2193595;59;2317;-20
2023/06/18 16:41:16;;;;;;;;;;;;;;;;;;2193029;59;1638;-20
2023/06/18 16:43:46;;;;;;;;;;;;;;;;;;2194434;59;1661;-20
2023/06/18 16:46:17;;;;;;;;;;;;;;;;;;2194359;59;1601;-20
2023/06/18 16:48:47;;;;;;;;;;;;;;;;;;2194186;59;2107;-20
2023/06/18 16:51:18;;;;;;;;;;;;;;;;;;2193823;59;1425;-20
2023/06/18 16:53:50;;;;;;;;;;;;;;;;;;2194978;67;1313;-20
2023/06/18 16:56:20;;;;;;;;;;;;;;;;;;2193430;67;2192;-20
2023/06/18 16:58:50;;;;;;;;;;;;;;;;;;2193373;67;2509;-20
2023/06/18 17:01:21;;;;;;;;;;;;;;;;;;2195529;59;2419;-20
2023/06/18 17:03:51;;;;;;;;;;;;;;;;;;2194302;59;1641;-20
2023/06/18 17:06:22;;;;;;;;;;;;;;;;;;2192849;59;3047;-20
2023/06/18 17:08:52;;;;;;;;;;;;;;;;;;2192564;59;3172;-20
2023/06/18 17:11:22;;;;;;;;;;;;;;;;;;2193703;59;2286;-20
2023/06/18 17:13:53;;;;;;;;;;;;;;;;;;2193719;59;1853;-20
2023/06/18 17:16:23;;;;;;;;;;;;;;;;;;2192949;67;2060;-20
2023/06/18 17:18:53;;;;;;;;;;;;;;;;;;2194850;64;1846;-20
2023/06/18 17:21:23;;;;;;;;;;;;;;;;;;2193103;67;1909;-20
2023/06/18 17:23:59;;;;;;;;;;;;;;;;;;2193871;60;2650;-20
2023/06/18 17:26:31;;;;;;;;;;;;;;;;;;2193469;59;1995;-20
2023/06/18 17:29:02;;;;;;;;;;;;;;;;;;2196181;67;2471;-20
2023/06/18 17:31:32;;;;;;;;;;;;;;;;;;2190733;59;2431;-20